sensor_id;sensor_type;location;lat;lon;timestamp;pressure;altitude;pressure_sealevel;temperature;humidity
60854;BME280;48554;50.766;2.900;2022-07-06T00:01:36;102085.28;;;22.38;43.17
60854;BME280;48554;50.766;2.900;2022-07-06T00:03:56;102088.00;;;22.38;43.33
60854;BME280;48554;50.766;2.900;2022-07-06T00:06:16;102079.06;;;22.38;43.18
60854;BME280;48554;50.766;2.900;2022-07-06T00:08:37;102084.25;;;22.39;43.05
60854;BME280;48554;50.766;2.900;2022-07-06T00:10:58;102084.25;;;22.39;43.11
60854;BME280;48554;50.766;2.900;2022-07-06T00:13:18;102071.78;;;22.38;42.93
60854;BME280;48554;50.766;2.900;2022-07-06T00:15:38;102076.06;;;22.34;43.04
60854;BME280;48554;50.766;2.900;2022-07-06T00:17:58;102076.88;;;22.35;43.03
60854;BME280;48554;50.766;2.900;2022-07-06T00:20:19;102080.09;;;22.32;43.24
60854;BME280;48554;50.766;2.900;2022-07-06T00:22:39;102083.34;;;22.34;43.21
60854;BME280;48554;50.766;2.900;2022-07-06T00:24:59;102082.28;;;22.35;43.24
60854;BME280;48554;50.766;2.900;2022-07-06T00:27:20;102082.28;;;22.35;42.94
60854;BME280;48554;50.766;2.900;2022-07-06T00:29:40;102082.28;;;22.35;43.10
60854;BME280;48554;50.766;2.900;2022-07-06T00:32:00;102083.91;;;22.36;43.00
60854;BME280;48554;50.766;2.900;2022-07-06T00:34:20;102085.22;;;22.33;42.91
60854;BME280;48554;50.766;2.900;2022-07-06T00:36:40;102084.91;;;22.30;43.04
60854;BME280;48554;50.766;2.900;2022-07-06T00:39:01;102084.09;;;22.29;43.09
60854;BME280;48554;50.766;2.900;2022-07-06T00:41:21;102085.41;;;22.27;43.30
60854;BME280;48554;50.766;2.900;2022-07-06T00:43:59;102084.56;;;22.26;43.20
60854;BME280;48554;50.766;2.900;2022-07-06T00:46:22;102078.13;;;22.27;43.07
60854;BME280;48554;50.766;2.900;2022-07-06T00:48:43;102084.03;;;22.24;43.12
60854;BME280;48554;50.766;2.900;2022-07-06T00:51:03;102080.00;;;22.27;43.03
60854;BME280;48554;50.766;2.900;2022-07-06T00:53:24;102071.84;;;22.21;43.03
60854;BME280;48554;50.766;2.900;2022-07-06T00:55:44;102081.06;;;22.26;43.06
60854;BME280;48554;50.766;2.900;2022-07-06T00:58:06;102078.34;;;22.26;43.28
60854;BME280;48554;50.766;2.900;2022-07-06T01:00:28;102074.28;;;22.23;43.01
60854;BME280;48554;50.766;2.900;2022-07-06T01:02:49;102077.22;;;22.21;43.14
60854;BME280;48554;50.766;2.900;2022-07-06T01:05:11;102064.78;;;22.20;42.98
60854;BME280;48554;50.766;2.900;2022-07-06T01:07:32;102071.84;;;22.21;43.09
60854;BME280;48554;50.766;2.900;2022-07-06T01:09:53;102072.88;;;22.20;42.95
60854;BME280;48554;50.766;2.900;2022-07-06T01:12:14;102072.28;;;22.18;43.27
60854;BME280;48554;50.766;2.900;2022-07-06T01:14:35;102074.97;;;22.18;42.91
60854;BME280;48554;50.766;2.900;2022-07-06T01:16:56;102079.56;;;22.18;43.05
60854;BME280;48554;50.766;2.900;2022-07-06T01:19:16;102077.69;;;22.18;43.08
60854;BME280;48554;50.766;2.900;2022-07-06T01:21:39;102078.47;;;22.19;43.10
60854;BME280;48554;50.766;2.900;2022-07-06T01:24:00;102066.88;;;22.18;43.24
60854;BME280;48554;50.766;2.900;2022-07-06T01:26:21;102072.28;;;22.18;43.02
60854;BME280;48554;50.766;2.900;2022-07-06T01:28:41;102075.25;;;22.17;43.13
60854;BME280;48554;50.766;2.900;2022-07-06T01:31:02;102074.41;;;22.16;43.11
60854;BME280;48554;50.766;2.900;2022-07-06T01:33:22;102074.41;;;22.16;43.12
60854;BME280;48554;50.766;2.900;2022-07-06T01:35:42;102071.38;;;22.13;43.27
60854;BME280;48554;50.766;2.900;2022-07-06T01:38:02;102072.78;;;22.15;43.14
60854;BME280;48554;50.766;2.900;2022-07-06T01:40:23;102074.91;;;22.13;43.07
60854;BME280;48554;50.766;2.900;2022-07-06T01:42:43;102070.81;;;22.11;43.21
60854;BME280;48554;50.766;2.900;2022-07-06T01:45:05;102071.16;;;22.14;43.19
60854;BME280;48554;50.766;2.900;2022-07-06T01:47:25;102065.34;;;22.06;43.08
60854;BME280;48554;50.766;2.900;2022-07-06T01:49:46;102065.66;;;22.09;43.40
60854;BME280;48554;50.766;2.900;2022-07-06T01:52:06;102068.91;;;22.11;43.23
60854;BME280;48554;50.766;2.900;2022-07-06T01:54:26;102060.50;;;22.08;43.44
60854;BME280;48554;50.766;2.900;2022-07-06T01:56:47;102061.00;;;22.05;43.26
60854;BME280;48554;50.766;2.900;2022-07-06T01:59:07;102059.94;;;22.06;43.40
60854;BME280;48554;50.766;2.900;2022-07-06T02:01:27;102055.63;;;22.05;43.38
60854;BME280;48554;50.766;2.900;2022-07-06T02:03:48;102053.66;;;22.00;43.53
60854;BME280;48554;50.766;2.900;2022-07-06T02:06:08;102054.47;;;22.00;43.57
60854;BME280;48554;50.766;2.900;2022-07-06T02:08:29;102054.13;;;21.97;43.46
60854;BME280;48554;50.766;2.900;2022-07-06T02:10:49;102057.41;;;21.99;43.24
60854;BME280;48554;50.766;2.900;2022-07-06T02:13:10;102057.16;;;22.00;43.57
60854;BME280;48554;50.766;2.900;2022-07-06T02:15:30;102059.03;;;22.00;43.40
60854;BME280;48554;50.766;2.900;2022-07-06T02:17:50;102056.81;;;21.97;43.40
60854;BME280;48554;50.766;2.900;2022-07-06T02:20:10;102063.28;;;21.96;43.39
60854;BME280;48554;50.766;2.900;2022-07-06T02:22:31;102056.28;;;21.95;43.23
60854;BME280;48554;50.766;2.900;2022-07-06T02:24:51;102050.78;;;21.90;43.50
60854;BME280;48554;50.766;2.900;2022-07-06T02:27:11;102052.41;;;21.91;43.56
60854;BME280;48554;50.766;2.900;2022-07-06T02:29:32;102051.84;;;21.89;43.59
60854;BME280;48554;50.766;2.900;2022-07-06T02:31:52;102046.13;;;21.85;43.40
60854;BME280;48554;50.766;2.900;2022-07-06T02:34:12;102044.31;;;21.91;43.82
60854;BME280;48554;50.766;2.900;2022-07-06T02:36:32;102043.81;;;21.94;43.98
60854;BME280;48554;50.766;2.900;2022-07-06T02:38:53;102047.75;;;22.03;43.49
60854;BME280;48554;50.766;2.900;2022-07-06T02:41:13;102049.88;;;22.01;43.89
60854;BME280;48554;50.766;2.900;2022-07-06T02:43:33;102044.97;;;21.98;44.18
60854;BME280;48554;50.766;2.900;2022-07-06T02:45:53;102054.31;;;22.07;43.69
60854;BME280;48554;50.766;2.900;2022-07-06T02:48:14;102056.44;;;22.05;43.86
60854;BME280;48554;50.766;2.900;2022-07-06T02:50:34;102049.88;;;22.01;43.94
60854;BME280;48554;50.766;2.900;2022-07-06T02:52:54;102049.38;;;22.04;43.74
60854;BME280;48554;50.766;2.900;2022-07-06T02:55:14;102040.16;;;22.00;43.89
60854;BME280;48554;50.766;2.900;2022-07-06T02:57:35;102040.53;;;21.92;44.16
60854;BME280;48554;50.766;2.900;2022-07-06T02:59:55;102044.31;;;21.91;44.22
60854;BME280;48554;50.766;2.900;2022-07-06T03:02:16;102038.13;;;21.90;43.77
60854;BME280;48554;50.766;2.900;2022-07-06T03:04:36;102043.50;;;21.90;44.07
60854;BME280;48554;50.766;2.900;2022-07-06T03:06:57;102038.34;;;21.89;43.74
60854;BME280;48554;50.766;2.900;2022-07-06T03:09:17;102041.84;;;21.89;43.93
60854;BME280;48554;50.766;2.900;2022-07-06T03:11:37;102036.22;;;21.91;43.85
60854;BME280;48554;50.766;2.900;2022-07-06T03:13:57;102027.31;;;21.90;43.64
60854;BME280;48554;50.766;2.900;2022-07-06T03:16:18;102028.38;;;21.89;43.74
60854;BME280;48554;50.766;2.900;2022-07-06T03:18:38;102035.41;;;21.90;43.85
60854;BME280;48554;50.766;2.900;2022-07-06T03:20:58;102027.25;;;21.85;43.75
60854;BME280;48554;50.766;2.900;2022-07-06T03:23:19;102028.63;;;21.88;43.79
60854;BME280;48554;50.766;2.900;2022-07-06T03:25:39;102037.78;;;21.87;43.54
60854;BME280;48554;50.766;2.900;2022-07-06T03:27:59;102032.72;;;21.90;43.73
60854;BME280;48554;50.766;2.900;2022-07-06T03:30:20;102034.03;;;21.88;43.73
60854;BME280;48554;50.766;2.900;2022-07-06T03:32:40;102029.38;;;21.83;43.58
60854;BME280;48554;50.766;2.900;2022-07-06T03:35:00;102025.84;;;21.83;43.63
60854;BME280;48554;50.766;2.900;2022-07-06T03:37:21;102039.41;;;21.88;43.42
60854;BME280;48554;50.766;2.900;2022-07-06T03:39:41;102034.50;;;21.85;43.58
60854;BME280;48554;50.766;2.900;2022-07-06T03:42:01;102044.16;;;21.80;43.48
60854;BME280;48554;50.766;2.900;2022-07-06T03:44:21;102047.09;;;21.79;43.68
60854;BME280;48554;50.766;2.900;2022-07-06T03:46:42;102040.66;;;21.80;43.53
60854;BME280;48554;50.766;2.900;2022-07-06T03:49:02;102050.38;;;21.81;43.56
60854;BME280;48554;50.766;2.900;2022-07-06T03:51:23;102052.16;;;21.75;43.56
60854;BME280;48554;50.766;2.900;2022-07-06T03:53:43;102052.63;;;21.72;44.13
60854;BME280;48554;50.766;2.900;2022-07-06T03:56:03;102050.50;;;21.74;43.71
60854;BME280;48554;50.766;2.900;2022-07-06T03:58:24;102043.81;;;21.77;43.40
60854;BME280;48554;50.766;2.900;2022-07-06T04:00:44;102052.72;;;21.77;43.77
60854;BME280;48554;50.766;2.900;2022-07-06T04:03:04;102046.78;;;21.75;43.63
60854;BME280;48554;50.766;2.900;2022-07-06T04:05:24;102042.19;;;21.76;43.79
60854;BME280;48554;50.766;2.900;2022-07-06T04:07:45;102038.09;;;21.73;43.79
60854;BME280;48554;50.766;2.900;2022-07-06T04:10:05;102035.97;;;21.75;43.80
60854;BME280;48554;50.766;2.900;2022-07-06T04:12:26;102038.91;;;21.74;43.52
60854;BME280;48554;50.766;2.900;2022-07-06T04:14:46;102037.28;;;21.73;43.76
60854;BME280;48554;50.766;2.900;2022-07-06T04:17:06;102034.00;;;21.71;43.89
60854;BME280;48554;50.766;2.900;2022-07-06T04:19:26;102031.06;;;21.72;43.76
60854;BME280;48554;50.766;2.900;2022-07-06T04:21:47;102028.63;;;21.71;43.90
60854;BME280;48554;50.766;2.900;2022-07-06T04:24:07;102032.94;;;21.72;43.80
60854;BME280;48554;50.766;2.900;2022-07-06T04:26:27;102034.00;;;21.71;44.02
60854;BME280;48554;50.766;2.900;2022-07-06T04:28:47;102033.75;;;21.72;43.75
60854;BME280;48554;50.766;2.900;2022-07-06T04:31:08;102040.22;;;21.71;43.66
60854;BME280;48554;50.766;2.900;2022-07-06T04:33:28;102028.84;;;21.69;44.03
60854;BME280;48554;50.766;2.900;2022-07-06T04:35:48;102027.81;;;21.70;43.84
60854;BME280;48554;50.766;2.900;2022-07-06T04:38:08;102022.88;;;21.67;43.72
60854;BME280;48554;50.766;2.900;2022-07-06T04:40:29;102024.53;;;21.68;43.79
60854;BME280;48554;50.766;2.900;2022-07-06T04:42:49;102027.47;;;21.67;43.94
60854;BME280;48554;50.766;2.900;2022-07-06T04:45:09;102029.66;;;21.70;44.17
60854;BME280;48554;50.766;2.900;2022-07-06T04:47:30;102040.72;;;21.68;44.00
60854;BME280;48554;50.766;2.900;2022-07-06T04:49:51;102035.56;;;21.67;43.87
60854;BME280;48554;50.766;2.900;2022-07-06T04:52:11;102034.66;;;21.61;44.02
60854;BME280;48554;50.766;2.900;2022-07-06T04:54:31;102033.84;;;21.61;44.26
60854;BME280;48554;50.766;2.900;2022-07-06T04:56:51;102031.38;;;21.59;44.19
60854;BME280;48554;50.766;2.900;2022-07-06T04:59:12;102032.53;;;21.63;43.96
60854;BME280;48554;50.766;2.900;2022-07-06T05:01:32;102034.88;;;21.59;43.81
60854;BME280;48554;50.766;2.900;2022-07-06T05:03:53;102035.13;;;21.58;44.34
60854;BME280;48554;50.766;2.900;2022-07-06T05:06:13;102032.09;;;21.54;44.32
60854;BME280;48554;50.766;2.900;2022-07-06T05:08:34;102035.63;;;21.55;44.36
60854;BME280;48554;50.766;2.900;2022-07-06T05:10:54;102030.72;;;21.52;44.26
60854;BME280;48554;50.766;2.900;2022-07-06T05:13:14;102034.47;;;21.51;44.73
60854;BME280;48554;50.766;2.900;2022-07-06T05:15:34;102029.63;;;21.53;44.54
60854;BME280;48554;50.766;2.900;2022-07-06T05:17:55;102047.06;;;21.62;44.23
60854;BME280;48554;50.766;2.900;2022-07-06T05:20:15;102042.56;;;21.68;44.45
60854;BME280;48554;50.766;2.900;2022-07-06T05:22:35;102049.03;;;21.67;44.79
60854;BME280;48554;50.766;2.900;2022-07-06T05:24:55;102043.41;;;21.68;45.47
60854;BME280;48554;50.766;2.900;2022-07-06T05:27:16;102044.81;;;21.71;45.20
60854;BME280;48554;50.766;2.900;2022-07-06T05:29:36;102040.81;;;21.73;44.99
60854;BME280;48554;50.766;2.900;2022-07-06T05:31:56;102043.50;;;21.73;45.32
60854;BME280;48554;50.766;2.900;2022-07-06T05:34:16;102047.81;;;21.74;45.00
60854;BME280;48554;50.766;2.900;2022-07-06T05:36:37;102053.78;;;21.76;44.67
60854;BME280;48554;50.766;2.900;2022-07-06T05:38:57;102041.63;;;21.74;44.75
60854;BME280;48554;50.766;2.900;2022-07-06T05:41:17;102049.78;;;21.79;44.88
60854;BME280;48554;50.766;2.900;2022-07-06T05:43:37;102042.28;;;21.81;45.48
60854;BME280;48554;50.766;2.900;2022-07-06T05:45:58;102047.91;;;21.79;47.22
60854;BME280;48554;50.766;2.900;2022-07-06T05:48:18;102048.16;;;21.78;50.60
60854;BME280;48554;50.766;2.900;2022-07-06T05:50:38;102049.47;;;21.75;50.15
60854;BME280;48554;50.766;2.900;2022-07-06T05:53:01;102046.28;;;21.78;50.01
60854;BME280;48554;50.766;2.900;2022-07-06T05:55:21;102047.31;;;21.77;49.83
60854;BME280;48554;50.766;2.900;2022-07-06T05:57:42;102046.28;;;21.78;49.66
60854;BME280;48554;50.766;2.900;2022-07-06T06:00:06;102049.56;;;21.80;49.12
60854;BME280;48554;50.766;2.900;2022-07-06T06:02:36;102044.16;;;21.80;49.17
60854;BME280;48554;50.766;2.900;2022-07-06T06:04:56;102047.44;;;21.83;48.40
60854;BME280;48554;50.766;2.900;2022-07-06T06:07:16;102046.28;;;21.78;48.44
60854;BME280;48554;50.766;2.900;2022-07-06T06:09:36;102047.91;;;21.79;48.20
60854;BME280;48554;50.766;2.900;2022-07-06T06:11:57;102045.78;;;21.82;48.18
60854;BME280;48554;50.766;2.900;2022-07-06T06:14:17;102050.13;;;21.83;48.10
60854;BME280;48554;50.766;2.900;2022-07-06T06:16:37;102047.91;;;21.79;47.96
60854;BME280;48554;50.766;2.900;2022-07-06T06:18:57;102048.47;;;21.82;47.99
60854;BME280;48554;50.766;2.900;2022-07-06T06:21:18;102052.84;;;21.83;48.07
60854;BME280;48554;50.766;2.900;2022-07-06T06:23:38;102050.59;;;21.79;47.73
60854;BME280;48554;50.766;2.900;2022-07-06T06:25:58;102054.44;;;21.84;47.99
60854;BME280;48554;50.766;2.900;2022-07-06T06:28:18;102059.03;;;21.83;47.97
60854;BME280;48554;50.766;2.900;2022-07-06T06:30:39;102064.09;;;21.79;47.85
60854;BME280;48554;50.766;2.900;2022-07-06T06:33:16;102069.47;;;21.79;47.80
60854;BME280;48554;50.766;2.900;2022-07-06T06:35:38;102068.34;;;21.75;48.05
60854;BME280;48554;50.766;2.900;2022-07-06T06:38:01;102071.28;;;21.74;48.36
60854;BME280;48554;50.766;2.900;2022-07-06T06:40:22;102065.56;;;21.70;48.56
60854;BME280;48554;50.766;2.900;2022-07-06T06:42:42;102074.94;;;21.68;48.54
60854;BME280;48554;50.766;2.900;2022-07-06T06:45:02;102081.25;;;21.73;48.54
60854;BME280;48554;50.766;2.900;2022-07-06T06:47:23;102086.97;;;21.77;48.36
60854;BME280;48554;50.766;2.900;2022-07-06T06:49:43;102078.31;;;21.75;48.46
60854;BME280;48554;50.766;2.900;2022-07-06T06:52:03;102086.06;;;21.71;48.49
60854;BME280;48554;50.766;2.900;2022-07-06T06:54:23;102074.22;;;21.72;48.54
60854;BME280;48554;50.766;2.900;2022-07-06T06:56:44;102073.75;;;21.75;48.51
60854;BME280;48554;50.766;2.900;2022-07-06T06:59:04;102081.84;;;21.75;48.40
60854;BME280;48554;50.766;2.900;2022-07-06T07:01:24;102079.69;;;21.77;48.32
60854;BME280;48554;50.766;2.900;2022-07-06T07:03:45;102088.06;;;21.76;48.96
60854;BME280;48554;50.766;2.900;2022-07-06T07:06:05;102094.34;;;21.82;48.64
60854;BME280;48554;50.766;2.900;2022-07-06T07:08:25;102083.56;;;21.82;48.55
60854;BME280;48554;50.766;2.900;2022-07-06T07:10:45;102089.63;;;21.89;48.07
60854;BME280;48554;50.766;2.900;2022-07-06T07:13:06;102085.38;;;21.93;47.90
60854;BME280;48554;50.766;2.900;2022-07-06T07:15:26;102085.09;;;21.94;47.68
60854;BME280;48554;50.766;2.900;2022-07-06T07:17:46;102083.81;;;21.97;47.57
60854;BME280;48554;50.766;2.900;2022-07-06T07:20:07;102086.19;;;21.93;48.11
60854;BME280;48554;50.766;2.900;2022-07-06T07:22:27;102083.25;;;21.95;47.81
60854;BME280;48554;50.766;2.900;2022-07-06T07:24:48;102082.25;;;22.01;47.83
60854;BME280;48554;50.766;2.900;2022-07-06T07:27:08;102089.31;;;22.02;47.54
60854;BME280;48554;50.766;2.900;2022-07-06T07:29:28;102083.91;;;22.02;47.39
60854;BME280;48554;50.766;2.900;2022-07-06T07:31:48;102085.03;;;22.06;47.84
60854;BME280;48554;50.766;2.900;2022-07-06T07:34:09;102092.91;;;22.08;47.83
60854;BME280;48554;50.766;2.900;2022-07-06T07:36:29;102085.38;;;22.10;47.37
60854;BME280;48554;50.766;2.900;2022-07-06T07:38:49;102083.00;;;22.13;47.69
60854;BME280;48554;50.766;2.900;2022-07-06T07:41:10;102073.75;;;22.09;48.23
60854;BME280;48554;50.766;2.900;2022-07-06T07:43:30;102081.09;;;22.14;47.92
60854;BME280;48554;50.766;2.900;2022-07-06T07:45:50;102080.38;;;22.18;47.60
60854;BME280;48554;50.766;2.900;2022-07-06T07:48:10;102082.25;;;22.18;47.36
60854;BME280;48554;50.766;2.900;2022-07-06T07:50:31;102080.97;;;22.20;47.67
60854;BME280;48554;50.766;2.900;2022-07-06T07:52:51;102076.97;;;22.23;47.41
60854;BME280;48554;50.766;2.900;2022-07-06T07:55:11;102070.53;;;22.24;47.51
60854;BME280;48554;50.766;2.900;2022-07-06T07:57:32;102068.88;;;22.23;47.48
60854;BME280;48554;50.766;2.900;2022-07-06T07:59:52;102062.44;;;22.24;47.46
60854;BME280;48554;50.766;2.900;2022-07-06T08:02:12;102050.78;;;22.23;48.22
60854;BME280;48554;50.766;2.900;2022-07-06T08:04:32;102045.38;;;22.23;47.64
60854;BME280;48554;50.766;2.900;2022-07-06T08:06:53;102049.75;;;22.25;47.78
60854;BME280;48554;50.766;2.900;2022-07-06T08:09:13;102050.03;;;22.28;47.50
60854;BME280;48554;50.766;2.900;2022-07-06T08:11:34;102042.75;;;22.29;48.12
60854;BME280;48554;50.766;2.900;2022-07-06T08:13:54;102043.34;;;22.31;47.99
60854;BME280;48554;50.766;2.900;2022-07-06T08:16:15;102052.00;;;22.33;47.46
60854;BME280;48554;50.766;2.900;2022-07-06T08:18:36;102045.56;;;22.34;47.55
60854;BME280;48554;50.766;2.900;2022-07-06T08:20:56;102041.22;;;22.33;47.65
60854;BME280;48554;50.766;2.900;2022-07-06T08:23:16;102031.72;;;22.30;47.88
60854;BME280;48554;50.766;2.900;2022-07-06T08:25:36;102036.88;;;22.32;47.68
60854;BME280;48554;50.766;2.900;2022-07-06T08:27:57;102030.97;;;22.35;48.00
60854;BME280;48554;50.766;2.900;2022-07-06T08:30:17;102035.31;;;22.36;47.94
60854;BME280;48554;50.766;2.900;2022-07-06T08:32:39;102029.91;;;22.36;47.74
60854;BME280;48554;50.766;2.900;2022-07-06T08:34:59;102033.19;;;22.38;48.05
60854;BME280;48554;50.766;2.900;2022-07-06T08:37:20;102032.59;;;22.36;47.93
60854;BME280;48554;50.766;2.900;2022-07-06T08:39:40;102033.19;;;22.38;48.28
60854;BME280;48554;50.766;2.900;2022-07-06T08:42:02;102031.47;;;22.32;48.08
60854;BME280;48554;50.766;2.900;2022-07-06T08:44:22;102043.97;;;22.38;48.13
60854;BME280;48554;50.766;2.900;2022-07-06T08:46:44;102036.16;;;22.36;47.95
60854;BME280;48554;50.766;2.900;2022-07-06T08:49:06;102044.31;;;22.41;47.88
60854;BME280;48554;50.766;2.900;2022-07-06T08:51:27;102041.84;;;22.40;47.83
60854;BME280;48554;50.766;2.900;2022-07-06T08:53:47;102035.38;;;22.41;48.02
60854;BME280;48554;50.766;2.900;2022-07-06T08:56:08;102040.22;;;22.39;48.72
60854;BME280;48554;50.766;2.900;2022-07-06T08:58:29;102044.47;;;22.35;49.28
60854;BME280;48554;50.766;2.900;2022-07-06T09:00:49;102041.78;;;22.35;49.21
60854;BME280;48554;50.766;2.900;2022-07-06T09:03:11;102050.19;;;22.38;50.71
60854;BME280;48554;50.766;2.900;2022-07-06T09:05:32;102048.81;;;22.36;49.05
60854;BME280;48554;50.766;2.900;2022-07-06T09:07:54;102053.66;;;22.34;48.77
60854;BME280;48554;50.766;2.900;2022-07-06T09:10:20;102058.56;;;22.37;49.21
60854;BME280;48554;50.766;2.900;2022-07-06T09:12:41;102061.50;;;22.35;49.18
60854;BME280;48554;50.766;2.900;2022-07-06T09:15:01;102063.38;;;22.35;50.78
60854;BME280;48554;50.766;2.900;2022-07-06T09:17:25;102057.91;;;22.30;50.71
60854;BME280;48554;50.766;2.900;2022-07-06T09:19:45;102055.44;;;22.28;50.70
60854;BME280;48554;50.766;2.900;2022-07-06T09:22:06;102055.44;;;22.28;50.36
60854;BME280;48554;50.766;2.900;2022-07-06T09:24:26;102062.81;;;22.33;49.54
60854;BME280;48554;50.766;2.900;2022-07-06T09:26:47;102060.09;;;22.33;49.79
60854;BME280;48554;50.766;2.900;2022-07-06T09:29:08;102052.00;;;22.33;49.40
60854;BME280;48554;50.766;2.900;2022-07-06T09:31:29;102048.41;;;22.27;50.90
60854;BME280;48554;50.766;2.900;2022-07-06T09:36:36;102053.66;;;22.34;49.60
60854;BME280;48554;50.766;2.900;2022-07-06T09:38:56;102052.50;;;22.30;49.51
60854;BME280;48554;50.766;2.900;2022-07-06T09:41:30;102050.38;;;22.32;49.55
60854;BME280;48554;50.766;2.900;2022-07-06T09:43:50;102056.03;;;22.30;49.74
60854;BME280;48554;50.766;2.900;2022-07-06T09:46:10;102055.78;;;22.32;49.54
60854;BME280;48554;50.766;2.900;2022-07-06T09:48:35;102056.91;;;22.36;49.50
60854;BME280;48554;50.766;2.900;2022-07-06T09:50:57;102057.75;;;22.36;48.86
60854;BME280;48554;50.766;2.900;2022-07-06T09:53:18;102060.19;;;22.38;48.69
60854;BME280;48554;50.766;2.900;2022-07-06T09:55:49;102058.06;;;22.40;48.74
60854;BME280;48554;50.766;2.900;2022-07-06T09:58:10;102069.66;;;22.40;48.41
60854;BME280;48554;50.766;2.900;2022-07-06T10:00:30;102077.28;;;22.43;48.39
60854;BME280;48554;50.766;2.900;2022-07-06T10:02:51;102060.81;;;22.45;48.36
60854;BME280;48554;50.766;2.900;2022-07-06T10:05:11;102065.41;;;22.44;48.28
60854;BME280;48554;50.766;2.900;2022-07-06T10:07:32;102058.69;;;22.47;48.36
60854;BME280;48554;50.766;2.900;2022-07-06T10:09:52;102044.13;;;22.48;48.14
60854;BME280;48554;50.766;2.900;2022-07-06T10:12:13;102045.75;;;22.49;48.18
60854;BME280;48554;50.766;2.900;2022-07-06T10:14:37;102047.16;;;22.52;48.12
60854;BME280;48554;50.766;2.900;2022-07-06T10:17:00;102053.69;;;22.56;48.00
60854;BME280;48554;50.766;2.900;2022-07-06T10:19:21;102051.00;;;22.56;48.14
60854;BME280;48554;50.766;2.900;2022-07-06T10:21:41;102058.84;;;22.57;48.30
60854;BME280;48554;50.766;2.900;2022-07-06T10:24:04;102050.16;;;22.55;48.39
60854;BME280;48554;50.766;2.900;2022-07-06T10:26:24;102050.72;;;22.57;48.08
60854;BME280;48554;50.766;2.900;2022-07-06T10:28:45;102051.31;;;22.59;47.97
60854;BME280;48554;50.766;2.900;2022-07-06T10:31:06;102053.50;;;22.62;48.09
60854;BME280;48554;50.766;2.900;2022-07-06T10:33:26;102054.56;;;22.61;48.22
60854;BME280;48554;50.766;2.900;2022-07-06T10:35:47;102055.63;;;22.60;48.01
60854;BME280;48554;50.766;2.900;2022-07-06T10:38:08;102049.16;;;22.61;47.91
60854;BME280;48554;50.766;2.900;2022-07-06T10:40:36;102053.50;;;22.62;48.07
60854;BME280;48554;50.766;2.900;2022-07-06T10:43:01;102049.16;;;22.61;47.82
60854;BME280;48554;50.766;2.900;2022-07-06T10:47:47;102058.41;;;22.65;47.95
60854;BME280;48554;50.766;2.900;2022-07-06T10:50:08;102051.94;;;22.67;48.00
60854;BME280;48554;50.766;2.900;2022-07-06T10:52:57;102046.53;;;22.67;47.97
60854;BME280;48554;50.766;2.900;2022-07-06T10:55:47;102057.09;;;22.68;47.93
60854;BME280;48554;50.766;2.900;2022-07-06T10:58:08;102059.81;;;22.68;48.14
60854;BME280;48554;50.766;2.900;2022-07-06T11:00:51;102053.09;;;22.71;47.95
60854;BME280;48554;50.766;2.900;2022-07-06T11:05:58;102058.47;;;22.71;47.87
60854;BME280;48554;50.766;2.900;2022-07-06T11:08:18;102056.03;;;22.69;48.00
60854;BME280;48554;50.766;2.900;2022-07-06T11:10:48;102057.66;;;22.70;48.20
60854;BME280;48554;50.766;2.900;2022-07-06T11:13:24;102060.09;;;22.72;48.01
60854;BME280;48554;50.766;2.900;2022-07-06T11:15:48;102049.28;;;22.72;47.83
60854;BME280;48554;50.766;2.900;2022-07-06T11:18:12;102053.38;;;22.74;47.74
60854;BME280;48554;50.766;2.900;2022-07-06T11:20:32;102052.56;;;22.74;48.14
60854;BME280;48554;50.766;2.900;2022-07-06T11:22:54;102043.91;;;22.72;47.87
60854;BME280;48554;50.766;2.900;2022-07-06T11:25:15;102041.75;;;22.74;47.83
60854;BME280;48554;50.766;2.900;2022-07-06T11:27:36;102040.69;;;22.75;47.87
60854;BME280;48554;50.766;2.900;2022-07-06T11:29:56;102040.94;;;22.73;47.69
60854;BME280;48554;50.766;2.900;2022-07-06T11:32:23;102037.97;;;22.75;47.57
60854;BME280;48554;50.766;2.900;2022-07-06T11:34:44;102049.13;;;22.78;47.40
60854;BME280;48554;50.766;2.900;2022-07-06T11:37:10;102048.03;;;22.79;47.38
60854;BME280;48554;50.766;2.900;2022-07-06T11:39:32;102048.84;;;22.80;47.88
60854;BME280;48554;50.766;2.900;2022-07-06T11:41:54;102039.13;;;22.79;47.50
60854;BME280;48554;50.766;2.900;2022-07-06T11:44:15;102038.03;;;22.80;47.63
60854;BME280;48554;50.766;2.900;2022-07-06T11:46:36;102038.03;;;22.80;47.36
60854;BME280;48554;50.766;2.900;2022-07-06T11:49:02;102039.94;;;22.79;47.50
60854;BME280;48554;50.766;2.900;2022-07-06T11:51:24;102045.66;;;22.83;47.46
60854;BME280;48554;50.766;2.900;2022-07-06T11:53:46;102033.22;;;22.82;47.50
60854;BME280;48554;50.766;2.900;2022-07-06T11:56:07;102035.34;;;22.80;47.50
60854;BME280;48554;50.766;2.900;2022-07-06T11:58:27;102045.66;;;22.83;47.46
60854;BME280;48554;50.766;2.900;2022-07-06T12:01:14;102028.66;;;22.82;47.41
60854;BME280;48554;50.766;2.900;2022-07-06T12:03:34;102029.47;;;22.83;47.69
60854;BME280;48554;50.766;2.900;2022-07-06T12:05:55;102034.84;;;22.83;47.43
60854;BME280;48554;50.766;2.900;2022-07-06T12:08:15;102032.41;;;22.81;47.63
60854;BME280;48554;50.766;2.900;2022-07-06T12:10:35;102030.50;;;22.82;47.61
60854;BME280;48554;50.766;2.900;2022-07-06T12:13:02;102024.28;;;22.81;47.48
60854;BME280;48554;50.766;2.900;2022-07-06T12:15:26;102040.00;;;22.84;47.51
60854;BME280;48554;50.766;2.900;2022-07-06T12:17:47;102037.28;;;22.84;47.71
60854;BME280;48554;50.766;2.900;2022-07-06T12:20:08;102036.47;;;22.84;47.30
60854;BME280;48554;50.766;2.900;2022-07-06T12:22:28;102033.78;;;22.84;47.53
60854;BME280;48554;50.766;2.900;2022-07-06T12:24:49;102013.25;;;22.83;47.60
60854;BME280;48554;50.766;2.900;2022-07-06T12:27:14;102014.91;;;22.89;47.50